Погода Зеленковщизнана 2 недели

Брестская область, Белоруссия

17 - 30 июля
  • 17июля
    Сегодня
    +19°
    +30°
    Облачно с прояснениями
    ВремяПогодаТемператураВлажностьДавлениеВетер, м/сВероятность осадков
    00:00Практически безоблачно+26°C75 %747 мм2.8 м/с2 %
    03:00Ясно и безоблачно+23°C81 %747 мм2.6 м/с9 %
    06:00Ясно и безоблачно+22°C91 %748 мм2.0 м/с4 %
    09:00Практически безоблачно+24°C74 %750 мм3.0 м/с2 %
    12:00Небольшая облачность+27°C53 %750 мм3.1 м/с6 %
    15:00Облачно с прояснениями+29°C41 %750 мм3.2 м/с9 %
    18:00Практически безоблачно+30°C40 %750 мм2.7 м/с3 %
    21:00Небольшая облачность+27°C52 %751 мм1.7 м/с3 %
  • 18июля
    Четверг
    +15°
    +28°
    Ясно и безоблачно
    ВремяПогодаТемператураВлажностьДавлениеВетер, м/сВероятность осадков
    00:00Небольшая облачность+23°C52 %751 мм4.1 м/с1 %
    03:00Облачно с прояснениями+21°C59 %751 мм1.5 м/с20 %
    06:00Облачно с прояснениями, ливень+19°C73 %752 мм2.2 м/с47 %
    09:00Практически безоблачно+21°C68 %752 мм2.8 м/с33 %
    12:00Ясно и безоблачно+25°C45 %752 мм3.9 м/с7 %
    15:00Ясно и безоблачно+27°C40 %752 мм4.9 м/с8 %
    18:00Практически безоблачно+27°C38 %752 мм4.2 м/с4 %
    21:00Ясно и безоблачно+24°C42 %752 мм3.4 м/с2 %
  • 19июля
    Пятница
    +14°
    +27°
    Ясно и безоблачно
    ВремяПогодаТемператураВлажностьДавлениеВетер, м/сВероятность осадков
    00:00Ясно и безоблачно+20°C59 %752 мм2.2 м/с2 %
    03:00Облачно с прояснениями+18°C63 %753 мм3.5 м/с2 %
    06:00Практически безоблачно+16°C74 %753 мм2.0 м/с2 %
    09:00Облачно с прояснениями+20°C55 %753 мм2.3 м/с2 %
    12:00Небольшая облачность+23°C46 %753 мм3.5 м/с2 %
    15:00Ясно и безоблачно+25°C36 %752 мм4.0 м/с2 %
    18:00Практически безоблачно+26°C35 %751 мм3.8 м/с2 %
    21:00Ясно и безоблачно+24°C42 %750 мм2.3 м/с2 %
  • 20июля
    Суббота
    +15°
    +27°
    Ясно и безоблачно
    ВремяПогодаТемператураВлажностьДавлениеВетер, м/сВероятность осадков
    00:00Ясно и безоблачно+19°C56 %750 мм2.3 м/с2 %
    03:00Ясно и безоблачно+17°C66 %750 мм2.6 м/с2 %
    06:00Ясно и безоблачно+15°C80 %750 мм1.7 м/с2 %
    09:00Ясно и безоблачно+19°C55 %750 мм2.3 м/с2 %
    12:00Ясно и безоблачно+23°C39 %750 мм3.3 м/с2 %
    15:00Ясно и безоблачно+25°C31 %749 мм3.6 м/с2 %
    18:00Ясно и безоблачно+26°C29 %748 мм2.9 м/с2 %
    21:00Ясно и безоблачно+24°C41 %748 мм1.9 м/с2 %
  • 21июля
    Воскресенье
    +16°
    +30°
    Небольшая облачность
    ВремяПогодаТемператураВлажностьДавлениеВетер, м/сВероятность осадков
    00:00Ясно и безоблачно+19°C57 %748 мм1.9 м/с2 %
    03:00Ясно и безоблачно+17°C67 %747 мм1.1 м/с2 %
    06:00Ясно и безоблачно+16°C78 %747 мм1.2 м/с2 %
    09:00Небольшая облачность+21°C48 %747 мм1.8 м/с2 %
    12:00Облачно с прояснениями+25°C36 %747 мм2.4 м/с2 %
    15:00Небольшая облачность+28°C30 %746 мм2.9 м/с5 %
    18:00Небольшая облачность+29°C29 %745 мм2.2 м/с2 %
    21:00Практически безоблачно+26°C44 %744 мм0.9 м/с2 %
Мы используем cookies
Соглашаюсь